Time;durP1;ratioP1;P1;durP2;ratioP2;P2;SDS_P1;SDS_P2;PMS_P1;PMS_P2;Temp;Humidity;BMP_temperature;BMP_pressure;BME280_temperature;BME280_humidity;BME280_pressure;Samples;Min_cycle;Max_cycle;Signal;HPM_P1;HPM_P2
2023/11/30 00:00:07;;;;;;;12.15;5.78;;;;;;;-1.50;100.00;97114.66;6091386;19;20007;-72
2023/11/30 00:02:07;;;;;;;11.77;5.80;;;;;;;-1.52;100.00;97109.56;6091243;19;20011;-72
2023/11/30 00:04:08;;;;;;;20.25;6.88;;;;;;;-1.50;100.00;97114.66;6091804;19;20010;-72
2023/11/30 00:06:08;;;;;;;11.65;6.40;;;;;;;-1.51;100.00;97107.63;6092497;19;20463;-72
2023/11/30 00:08:08;;;;;;;13.23;5.95;;;;;;;-1.49;100.00;97114.34;6095876;19;20483;-72
2023/11/30 00:10:09;;;;;;;12.70;6.47;;;;;;;-1.46;100.00;97110.16;6098090;19;20835;-72
2023/11/30 00:12:09;;;;;;;10.70;5.80;;;;;;;-1.46;100.00;97102.00;6096749;19;20002;-72
2023/11/30 00:14:10;;;;;;;11.45;6.50;;;;;;;-1.48;100.00;97112.41;6097262;19;20003;-72
2023/11/30 00:16:10;;;;;;;12.90;5.90;;;;;;;-1.53;100.00;97118.81;6096822;19;20321;-72
2023/11/30 00:18:10;;;;;;;12.95;6.60;;;;;;;-1.57;100.00;97117.09;6096462;19;20007;-72
2023/11/30 00:20:12;;;;;;;13.23;5.95;;;;;;;-1.63;100.00;97119.22;6097223;19;20047;-72
2023/11/30 00:22:12;;;;;;;11.98;6.43;;;;;;;-1.66;100.00;97119.09;6097081;19;20039;-72
2023/11/30 00:24:12;;;;;;;11.32;6.55;;;;;;;-1.71;100.00;97115.47;6097138;19;20490;-72
2023/11/30 00:26:14;;;;;;;11.63;6.53;;;;;;;-1.72;100.00;97122.00;6097965;19;20026;-72
2023/11/30 00:28:15;;;;;;;12.90;6.57;;;;;;;-1.77;100.00;97116.00;6100825;19;20011;-72
2023/11/30 00:30:15;;;;;;;10.10;5.82;;;;;;;-1.78;100.00;97112.47;6103887;19;20613;-72
2023/11/30 00:32:15;;;;;;;9.25;5.65;;;;;;;-1.80;100.00;97119.38;6102649;19;20043;-72
2023/11/30 00:34:16;;;;;;;9.88;5.75;;;;;;;-1.83;100.00;97117.31;6103061;19;20002;-72
2023/11/30 00:36:16;;;;;;;10.00;5.43;;;;;;;-1.79;100.00;97118.25;6103947;19;20030;-72
2023/11/30 00:38:16;;;;;;;9.27;5.63;;;;;;;-1.77;100.00;97118.69;6102863;19;20029;-72
2023/11/30 00:40:17;;;;;;;11.95;6.07;;;;;;;-1.73;100.00;97112.28;6103627;19;20374;-72
2023/11/30 00:42:17;;;;;;;9.43;5.25;;;;;;;-1.71;100.00;97111.97;6104279;19;20017;-72
2023/11/30 00:44:20;;;;;;;9.88;6.00;;;;;;;-1.71;100.00;97118.19;6102897;19;20010;-72
2023/11/30 00:46:21;;;;;;;9.85;5.57;;;;;;;-1.74;100.00;97118.03;6103379;19;20034;-72
2023/11/30 00:48:21;;;;;;;9.93;5.78;;;;;;;-1.77;100.00;97113.28;6101847;19;20006;-72
2023/11/30 00:50:21;;;;;;;8.30;4.93;;;;;;;-1.78;100.00;97117.13;6104136;19;20006;-72
2023/11/30 00:52:22;;;;;;;8.75;4.60;;;;;;;-1.78;100.00;97123.31;6102568;19;20467;-74
2023/11/30 00:54:22;;;;;;;9.90;5.07;;;;;;;-1.79;100.00;97129.88;6103957;19;20366;-73
2023/11/30 00:56:23;;;;;;;9.40;5.18;;;;;;;-1.82;100.00;97127.84;6103378;19;20428;-72
2023/11/30 00:58:23;;;;;;;8.23;5.10;;;;;;;-1.85;100.00;97141.25;6103183;19;20030;-73
2023/11/30 01:00:23;;;;;;;8.98;4.93;;;;;;;-1.88;100.00;97131.06;6102937;19;20032;-73
2023/11/30 01:02:23;;;;;;;9.27;5.50;;;;;;;-1.88;100.00;97140.00;6103199;19;20009;-73
2023/11/30 01:04:24;;;;;;;8.23;4.95;;;;;;;-1.90;100.00;97134.13;6102960;19;20502;-73
2023/11/30 01:06:24;;;;;;;8.57;5.18;;;;;;;-1.91;100.00;97143.34;6103310;19;20015;-73
2023/11/30 01:08:25;;;;;;;8.07;4.95;;;;;;;-1.93;100.00;97139.38;6101959;19;20354;-73
2023/11/30 01:10:25;;;;;;;10.18;5.25;;;;;;;-1.91;100.00;97139.84;6103905;19;20024;-73
2023/11/30 01:12:26;;;;;;;10.00;5.60;;;;;;;-1.92;100.00;97143.69;6102491;19;20010;-73
2023/11/30 01:14:27;;;;;;;9.20;5.03;;;;;;;-1.93;100.00;97136.66;6101941;19;20044;-73
2023/11/30 01:16:27;;;;;;;8.05;4.82;;;;;;;-1.97;100.00;97147.41;6103032;19;20022;-73
2023/11/30 01:18:27;;;;;;;8.48;5.40;;;;;;;-2.02;100.00;97142.94;6102466;19;20014;-73
2023/11/30 01:20:27;;;;;;;7.75;5.07;;;;;;;-2.04;100.00;97141.69;6102685;19;20027;-73
2023/11/30 01:22:28;;;;;;;8.88;4.78;;;;;;;-2.07;100.00;97147.75;6102726;19;20018;-73
2023/11/30 01:24:28;;;;;;;7.82;4.85;;;;;;;-2.12;100.00;97150.66;6103382;19;20322;-73
2023/11/30 01:26:28;;;;;;;6.50;4.40;;;;;;;-2.12;100.00;97153.38;6103123;19;20034;-73
2023/11/30 01:28:29;;;;;;;11.52;5.45;;;;;;;-2.14;100.00;97144.78;6101937;19;20272;-73
2023/11/30 01:30:29;;;;;;;9.00;5.38;;;;;;;-2.16;100.00;97147.00;6103192;19;20054;-73
2023/11/30 01:32:30;;;;;;;8.38;5.28;;;;;;;-2.20;100.00;97146.88;6102295;19;20089;-73
2023/11/30 01:34:30;;;;;;;9.52;5.18;;;;;;;-2.26;100.00;97151.69;6102406;19;20143;-73
2023/11/30 01:36:30;;;;;;;10.55;5.88;;;;;;;-2.33;100.00;97154.09;6103501;19;20006;-73
2023/11/30 01:38:31;;;;;;;9.50;5.60;;;;;;;-2.34;100.00;97154.44;6101925;19;20003;-73
2023/11/30 01:40:31;;;;;;;8.85;5.35;;;;;;;-2.36;100.00;97146.66;6103494;19;20002;-73
2023/11/30 01:42:32;;;;;;;9.82;5.65;;;;;;;-2.38;100.00;97148.88;6102046;19;20354;-73
2023/11/30 01:44:32;;;;;;;7.20;5.55;;;;;;;-2.38;100.00;97150.81;6102884;19;20029;-73
2023/11/30 01:46:33;;;;;;;9.65;4.90;;;;;;;-2.40;100.00;97145.72;6102253;19;20095;-73
2023/11/30 01:48:33;;;;;;;9.23;5.05;;;;;;;-2.43;100.00;97134.72;6101878;19;20006;-73
2023/11/30 01:50:34;;;;;;;8.13;4.82;;;;;;;-2.41;100.00;97138.69;6103104;19;20435;-73
2023/11/30 01:52:35;;;;;;;8.27;5.28;;;;;;;-2.35;100.00;97136.59;6101694;19;20662;-73
2023/11/30 01:54:36;;;;;;;10.20;5.90;;;;;;;-2.26;100.00;97134.63;6102102;19;20006;-73
2023/11/30 01:56:39;;;;;;;11.63;5.57;;;;;;;-2.26;100.00;97126.50;6103535;19;20301;-73
2023/11/30 01:58:39;;;;;;;7.10;4.75;;;;;;;-2.24;100.00;97124.25;6101348;19;20010;-73
2023/11/30 02:00:41;;;;;;;8.52;4.55;;;;;;;-2.29;100.00;97122.53;6102451;19;20005;-73
2023/11/30 02:02:42;;;;;;;10.07;5.50;;;;;;;-2.30;100.00;97122.88;6101619;19;20026;-73
2023/11/30 02:04:44;;;;;;;8.35;4.95;;;;;;;-2.33;100.00;97118.09;6101201;19;20025;-73
2023/11/30 02:06:46;;;;;;;7.95;4.97;;;;;;;-2.33;100.00;97124.31;6102563;19;20007;-73
2023/11/30 02:08:46;;;;;;;8.73;4.97;;;;;;;-2.29;100.00;97119.03;6101877;19;20019;-73
2023/11/30 02:10:46;;;;;;;13.27;4.70;;;;;;;-2.27;100.00;97111.38;6101976;19;20003;-73
2023/11/30 02:12:47;;;;;;;8.48;5.18;;;;;;;-2.27;100.00;97111.38;6101673;19;20733;-73
2023/11/30 02:14:47;;;;;;;21.05;10.95;;;;;;;-2.29;100.00;97111.72;6101605;19;20007;-73
2023/11/30 02:16:47;;;;;;;37.05;21.77;;;;;;;-2.30;100.00;97118.25;6101827;19;20335;-73
2023/11/30 02:18:48;;;;;;;23.38;14.15;;;;;;;-2.33;100.00;97116.19;6100558;19;20002;-73
2023/11/30 02:20:48;;;;;;;16.27;9.85;;;;;;;-2.33;100.00;97118.88;6102851;19;20006;-73
2023/11/30 02:22:48;;;;;;;16.00;8.77;;;;;;;-2.29;100.00;97111.72;6098612;19;20003;-73
2023/11/30 02:24:49;;;;;;;15.30;8.32;;;;;;;-2.19;100.00;97118.66;6101208;19;20720;-73
2023/11/30 02:26:49;;;;;;;12.43;7.82;;;;;;;-2.20;100.00;97119.78;6101781;19;20003;-73
2023/11/30 02:28:49;;;;;;;10.77;6.65;;;;;;;-2.19;100.00;97115.16;6099060;19;20003;-73
2023/11/30 02:30:50;;;;;;;9.95;5.90;;;;;;;-2.16;100.00;97114.50;6100156;19;20003;-73
2023/11/30 02:32:50;;;;;;;11.52;6.45;;;;;;;-2.19;100.00;97112.44;6101237;19;20014;-73
2023/11/30 02:34:50;;;;;;;12.05;6.72;;;;;;;-2.13;100.00;97121.97;6100825;19;20817;-73
2023/11/30 02:36:51;;;;;;;10.13;5.75;;;;;;;-2.12;100.00;97113.53;6101987;19;20342;-73
2023/11/30 02:38:51;;;;;;;10.45;6.22;;;;;;;-2.10;100.00;97113.97;6100222;19;20717;-73
2023/11/30 02:40:51;;;;;;;9.07;6.00;;;;;;;-2.09;100.00;97115.56;6101678;19;20739;-73
2023/11/30 02:42:52;;;;;;;10.02;6.20;;;;;;;-2.10;100.00;97113.97;6100774;19;20229;-73
2023/11/30 02:44:52;;;;;;;8.85;5.47;;;;;;;-2.12;100.00;97116.22;6100663;19;20052;-73
2023/11/30 02:46:52;;;;;;;11.57;5.82;;;;;;;-2.13;100.00;97113.84;6102225;19;20482;-73
2023/11/30 02:48:53;;;;;;;11.82;6.38;;;;;;;-2.11;100.00;97112.41;6099243;19;20020;-73
2023/11/30 02:50:53;;;;;;;9.55;6.10;;;;;;;-2.09;100.00;97107.44;6100279;19;20007;-73
2023/11/30 02:52:53;;;;;;;10.93;6.10;;;;;;;-2.07;100.00;97098.97;6101377;19;20074;-73
2023/11/30 02:54:54;;;;;;;10.25;6.45;;;;;;;-2.09;100.00;97104.72;6100643;19;20039;-73
2023/11/30 02:56:54;;;;;;;10.82;5.65;;;;;;;-2.08;100.00;97102.81;6100348;19;20475;-73
2023/11/30 02:58:54;;;;;;;9.15;6.00;;;;;;;-2.10;100.00;97103.13;6099139;19;20553;-73
2023/11/30 03:00:55;;;;;;;9.82;5.53;;;;;;;-2.12;100.00;97102.69;6100009;19;20255;-73
2023/11/30 03:02:55;;;;;;;10.02;5.72;;;;;;;-2.10;100.00;97100.44;6100981;19;20014;-73
2023/11/30 03:04:55;;;;;;;12.05;5.65;;;;;;;-2.11;100.00;97092.63;6100866;19;20007;-73
2023/11/30 03:06:56;;;;;;;10.82;5.63;;;;;;;-2.08;100.00;97095.47;6101017;19;20010;-73
2023/11/30 03:08:56;;;;;;;11.80;5.90;;;;;;;-2.04;100.00;97084.78;6099389;19;20066;-73
2023/11/30 03:10:56;;;;;;;11.52;7.07;;;;;;;-2.03;100.00;97081.72;6100197;19;20017;-73
2023/11/30 03:12:57;;;;;;;9.13;6.50;;;;;;;-2.01;100.00;97075.97;6100369;19;20010;-73
2023/11/30 03:14:57;;;;;;;12.82;7.13;;;;;;;-2.05;100.00;97077.78;6098760;19;20164;-73
2023/11/30 03:16:58;;;;;;;10.43;6.57;;;;;;;-2.08;100.00;97084.63;6097369;19;20026;-73
2023/11/30 03:18:58;;;;;;;10.30;6.22;;;;;;;-2.11;100.00;97077.16;6097656;19;20462;-73
2023/11/30 03:20:58;;;;;;;12.85;6.63;;;;;;;-2.12;100.00;97070.16;6100069;19;20006;-73
2023/11/30 03:22:59;;;;;;;10.90;6.13;;;;;;;-2.13;100.00;97079.41;6099679;19;20022;-73
2023/11/30 03:24:59;;;;;;;10.55;6.07;;;;;;;-2.14;100.00;97072.41;6099618;19;20017;-73
2023/11/30 03:26:59;;;;;;;11.43;6.18;;;;;;;-2.16;100.00;97063.00;6091848;19;19998;-73
2023/11/30 03:28:59;;;;;;;10.38;5.60;;;;;;;-2.17;100.00;97067.63;6096043;19;20013;-73
2023/11/30 03:31:00;;;;;;;8.38;5.55;;;;;;;-2.22;100.00;97062.44;6098872;19;20158;-73
2023/11/30 03:33:00;;;;;;;9.20;5.88;;;;;;;-2.29;100.00;97062.94;6099019;19;20530;-73
2023/11/30 03:35:00;;;;;;;10.15;5.60;;;;;;;-2.28;100.00;97058.31;6098590;19;20317;-73
2023/11/30 03:37:01;;;;;;;11.30;6.35;;;;;;;-2.30;100.00;97057.84;6098873;19;20492;-73
2023/11/30 03:39:01;;;;;;;10.48;5.97;;;;;;;-2.34;100.00;97062.34;6098179;19;20518;-73
2023/11/30 03:41:02;;;;;;;19.73;6.80;;;;;;;-2.37;100.00;97055.66;6100959;19;20546;-73
2023/11/30 03:43:02;;;;;;;13.00;5.90;;;;;;;-2.36;100.00;97064.59;6104559;19;20333;-73
2023/11/30 03:45:02;;;;;;;11.40;6.57;;;;;;;-2.36;100.00;97059.16;6104384;19;20010;-73
2023/11/30 03:47:03;;;;;;;11.23;6.47;;;;;;;-2.35;100.00;97064.25;6104590;19;20013;-73
2023/11/30 03:49:03;;;;;;;10.70;6.22;;;;;;;-2.39;100.00;97067.97;6103398;19;20074;-73
2023/11/30 03:51:04;;;;;;;9.52;5.72;;;;;;;-2.41;100.00;97064.75;6104963;19;20002;-73
2023/11/30 03:53:04;;;;;;;12.30;5.75;;;;;;;-2.49;100.00;97052.84;6104128;19;20007;-73
2023/11/30 03:55:05;;;;;;;12.43;6.35;;;;;;;-2.57;100.00;97067.25;6103507;19;19998;-73
2023/11/30 03:57:05;;;;;;;13.73;6.20;;;;;;;-2.55;100.00;97065.03;6104235;19;19999;-73
2023/11/30 03:59:05;;;;;;;9.80;5.47;;;;;;;-2.55;100.00;97068.53;6102710;19;20009;-73
2023/11/30 04:01:06;;;;;;;10.25;6.35;;;;;;;-2.62;100.00;97064.72;6104248;19;20005;-73
2023/11/30 04:03:07;;;;;;;9.00;5.45;;;;;;;-2.64;100.00;97070.47;6103788;19;20479;-73
2023/11/30 04:05:07;;;;;;;8.10;6.03;;;;;;;-2.61;100.00;97072.53;6104580;19;20002;-73
2023/11/30 04:07:07;;;;;;;11.27;6.22;;;;;;;-2.58;100.00;97074.56;6103938;19;20020;-73
2023/11/30 04:09:08;;;;;;;10.30;5.68;;;;;;;-2.61;100.00;97071.72;6102473;19;20003;-73
2023/11/30 04:11:14;;;;;;;9.38;6.07;;;;;;;-2.64;100.00;97069.69;6103812;19;20328;-73
2023/11/30 04:13:15;;;;;;;8.40;5.47;;;;;;;-2.62;100.00;97079.06;6104507;19;20007;-73
2023/11/30 04:15:15;;;;;;;11.27;5.60;;;;;;;-2.65;100.00;97077.03;6103550;19;20456;-73
2023/11/30 04:17:15;;;;;;;11.50;5.38;;;;;;;-2.66;100.00;97078.13;6099747;19;20011;-73
2023/11/30 04:19:16;;;;;;;10.20;5.90;;;;;;;-2.68;100.00;97082.28;6102455;19;20227;-73
2023/11/30 04:21:20;;;;;;;9.45;5.45;;;;;;;-2.71;100.00;97081.03;6102505;19;20470;-73
2023/11/30 04:23:21;;;;;;;9.73;6.00;;;;;;;-2.66;100.00;97080.03;6103300;19;20023;-73
2023/11/30 04:25:22;;;;;;;11.60;6.25;;;;;;;-2.61;100.00;97085.28;6103788;19;20336;-73
2023/11/30 04:27:22;;;;;;;11.05;6.00;;;;;;;-2.57;100.00;97086.19;6100571;19;20011;-73
2023/11/30 04:29:23;;;;;;;11.73;6.53;;;;;;;-2.60;100.00;97087.66;6092800;19;20025;-73
2023/11/30 04:31:23;;;;;;;12.63;6.60;;;;;;;-2.59;100.00;97089.22;6095605;19;20313;-73
2023/11/30 04:33:23;;;;;;;9.40;5.78;;;;;;;-2.56;100.00;97083.19;6096312;19;20604;-73
2023/11/30 04:35:24;;;;;;;10.70;6.18;;;;;;;-2.47;100.00;97091.25;6094063;19;20069;-73
2023/11/30 04:37:24;;;;;;;12.48;6.32;;;;;;;-2.45;100.00;97080.09;6094260;19;20007;-73
2023/11/30 04:39:24;;;;;;;12.20;6.15;;;;;;;-2.46;100.00;97081.22;6094663;19;20636;-73
2023/11/30 04:41:25;;;;;;;12.48;6.93;;;;;;;-2.46;100.00;97087.44;6096955;19;20033;-73
2023/11/30 04:43:25;;;;;;;10.93;6.32;;;;;;;-2.50;100.00;97083.78;6094908;19;20428;-73
2023/11/30 04:45:25;;;;;;;11.35;6.15;;;;;;;-2.52;100.00;97082.53;6095748;19;20529;-73
2023/11/30 04:47:26;;;;;;;10.75;6.57;;;;;;;-2.46;100.00;97075.81;6095538;19;20007;-73
2023/11/30 04:49:26;;;;;;;11.52;6.32;;;;;;;-2.44;100.00;97078.97;6095500;19;20021;-73
2023/11/30 04:51:26;;;;;;;13.50;7.28;;;;;;;-2.43;100.00;97078.63;6094880;19;20534;-72
2023/11/30 04:53:27;;;;;;;10.25;6.28;;;;;;;-2.40;100.00;97086.13;6091972;19;20103;-72
2023/11/30 04:55:27;;;;;;;10.18;6.07;;;;;;;-2.41;100.00;97081.81;6089239;19;20013;-72
2023/11/30 04:57:27;;;;;;;11.70;7.05;;;;;;;-2.45;100.00;97082.81;6090874;19;20037;-72
2023/11/30 04:59:28;;;;;;;13.23;6.45;;;;;;;-2.52;100.00;97082.53;6089987;19;20015;-72
2023/11/30 05:01:29;;;;;;;11.80;6.80;;;;;;;-2.57;100.00;97076.16;6087270;19;20377;-72
2023/11/30 05:03:30;;;;;;;12.70;6.03;;;;;;;-2.55;100.00;97081.25;6091464;19;19999;-72
2023/11/30 05:05:30;;;;;;;12.60;6.65;;;;;;;-2.53;100.00;97078.22;6090094;19;20014;-72
2023/11/30 05:07:31;;;;;;;11.00;6.13;;;;;;;-2.57;100.00;97078.84;6087588;19;20038;-72
2023/11/30 05:09:31;;;;;;;13.05;7.07;;;;;;;-2.56;100.00;97074.28;6090383;19;20011;-72
2023/11/30 05:11:31;;;;;;;11.27;6.30;;;;;;;-2.52;100.00;97075.19;6095366;19;20399;-72
2023/11/30 05:13:32;;;;;;;11.82;6.45;;;;;;;-2.51;100.00;97081.41;6093832;19;20006;-72
2023/11/30 05:15:33;;;;;;;13.80;7.00;;;;;;;-2.49;100.00;97085.34;6094574;19;20467;-72
2023/11/30 05:17:33;;;;;;;10.52;6.35;;;;;;;-2.45;100.00;97085.50;6094538;19;20999;-72
2023/11/30 05:19:34;;;;;;;10.43;6.20;;;;;;;-2.47;100.00;97080.44;6091936;19;20011;-72
2023/11/30 05:21:34;;;;;;;13.98;7.10;;;;;;;-2.43;100.00;97075.13;6094311;19;20798;-72
2023/11/30 05:23:34;;;;;;;16.80;7.93;;;;;;;-2.50;100.00;97080.28;6094797;19;20003;-73
2023/11/30 05:25:35;;;;;;;12.38;7.13;;;;;;;-2.58;100.00;97077.28;6094912;19;20376;-72
2023/11/30 05:27:35;;;;;;;13.40;7.60;;;;;;;-2.66;100.00;97066.50;6095408;19;20351;-72
2023/11/30 05:29:35;;;;;;;15.05;7.45;;;;;;;-2.70;100.00;97066.38;6100534;19;20034;-73
2023/11/30 05:31:36;;;;;;;14.45;7.53;;;;;;;-2.79;100.00;97060.19;6099896;19;20009;-72
2023/11/30 05:33:36;;;;;;;11.57;7.18;;;;;;;-2.85;100.00;97056.06;6102418;19;20003;-72
2023/11/30 05:35:37;;;;;;;14.45;9.18;;;;;;;-2.93;100.00;97046.88;6100522;19;20022;-72
2023/11/30 05:37:38;;;;;;;13.38;7.95;;;;;;;-2.96;100.00;97046.75;6101106;19;20011;-72
2023/11/30 05:39:38;;;;;;;12.23;6.90;;;;;;;-2.96;100.00;97057.56;6101927;19;20418;-72
2023/11/30 05:41:38;;;;;;;13.52;7.00;;;;;;;-2.96;100.00;97046.75;6103233;19;20138;-72
2023/11/30 05:43:39;;;;;;;12.07;6.47;;;;;;;-3.01;100.00;97045.00;6102025;19;20031;-72
2023/11/30 05:45:39;;;;;;;10.05;6.35;;;;;;;-2.98;100.00;97052.47;6102324;19;20251;-72
2023/11/30 05:47:40;;;;;;;17.00;7.00;;;;;;;-2.99;100.00;97048.16;6101317;19;20431;-72
2023/11/30 05:49:40;;;;;;;11.48;6.75;;;;;;;-3.03;100.00;97047.25;6102195;19;20003;-72
2023/11/30 05:51:40;;;;;;;9.55;5.47;;;;;;;-3.06;100.00;97052.50;6101523;19;20011;-72
2023/11/30 05:53:41;;;;;;;11.18;6.32;;;;;;;-3.05;100.00;97056.81;6102664;19;20010;-72
2023/11/30 05:55:41;;;;;;;11.80;6.38;;;;;;;-3.04;100.00;97059.19;6101770;19;20099;-72
2023/11/30 05:57:41;;;;;;;9.77;5.95;;;;;;;-3.04;100.00;97052.97;6100763;19;20010;-72
2023/11/30 05:59:42;;;;;;;13.82;7.07;;;;;;;-3.10;100.00;97055.06;6101924;19;20013;-72
2023/11/30 06:01:42;;;;;;;11.70;6.20;;;;;;;-3.13;100.00;97051.09;6101818;19;20006;-72
2023/11/30 06:03:43;;;;;;;13.73;7.43;;;;;;;-3.11;100.00;97050.78;6100922;19;20486;-72
2023/11/30 06:05:43;;;;;;;15.25;7.32;;;;;;;-3.15;100.00;97055.22;6099447;19;20018;-72
2023/11/30 06:07:44;;;;;;;14.05;8.10;;;;;;;-3.16;100.00;97049.03;6100535;19;20014;-72
2023/11/30 06:09:45;;;;;;;12.57;8.32;;;;;;;-3.13;100.00;97047.59;6101500;19;20018;-72
2023/11/30 06:11:45;;;;;;;15.25;7.80;;;;;;;-3.17;100.00;97052.84;6101384;19;20487;-72
2023/11/30 06:13:46;;;;;;;13.70;7.35;;;;;;;-3.20;100.00;97053.50;6101932;19;20030;-72
2023/11/30 06:15:46;;;;;;;13.00;7.43;;;;;;;-3.22;100.00;97053.03;6101251;19;20034;-72
2023/11/30 06:17:47;;;;;;;13.65;7.50;;;;;;;-3.25;100.00;97056.38;6100592;19;20018;-72
2023/11/30 06:19:47;;;;;;;14.02;6.93;;;;;;;-3.26;100.00;97059.41;6101402;19;20007;-72
2023/11/30 06:21:47;;;;;;;11.98;7.30;;;;;;;-3.27;100.00;97057.81;6101957;19;20017;-72
2023/11/30 06:23:48;;;;;;;12.85;7.35;;;;;;;-3.31;100.00;97063.09;6101126;19;20034;-72
2023/11/30 06:25:48;;;;;;;15.40;7.38;;;;;;;-3.38;100.00;97056.59;6101163;19;20109;-72
2023/11/30 06:27:48;;;;;;;10.82;6.53;;;;;;;-3.45;100.00;97057.88;6101232;19;20027;-72
2023/11/30 06:29:49;;;;;;;14.13;7.35;;;;;;;-3.47;100.00;97054.69;6102029;19;20025;-72
2023/11/30 06:31:49;;;;;;;15.88;7.22;;;;;;;-3.44;100.00;97058.66;6098375;19;20006;-72
2023/11/30 06:33:50;;;;;;;15.95;8.23;;;;;;;-3.40;100.00;97065.00;6101258;19;20018;-72
2023/11/30 06:35:50;;;;;;;14.20;8.18;;;;;;;-3.34;100.00;97063.72;6101180;19;20003;-72
2023/11/30 06:37:50;;;;;;;14.48;7.97;;;;;;;-3.30;100.00;97077.41;6099872;19;20632;-72
2023/11/30 06:39:51;;;;;;;14.98;7.35;;;;;;;-3.26;100.00;97072.94;6102754;19;20321;-72
2023/11/30 06:41:51;;;;;;;17.08;7.43;;;;;;;-3.29;100.00;97066.25;6101395;19;20035;-72
2023/11/30 06:43:51;;;;;;;17.23;8.43;;;;;;;-3.23;100.00;97069.56;6100781;19;20007;-72
2023/11/30 06:45:52;;;;;;;14.82;8.13;;;;;;;-3.26;100.00;97075.63;6101325;19;20003;-72
2023/11/30 06:47:52;;;;;;;13.50;7.90;;;;;;;-3.28;100.00;97070.56;6100849;19;20370;-72
2023/11/30 06:49:53;;;;;;;12.60;7.93;;;;;;;-3.35;100.00;97072.16;6100078;19;19999;-72
2023/11/30 06:51:53;;;;;;;13.15;7.65;;;;;;;-3.40;100.00;97084.72;6101023;19;19999;-72
2023/11/30 06:53:53;;;;;;;10.80;6.88;;;;;;;-3.43;100.00;97096.19;6101369;19;20006;-72
2023/11/30 06:55:54;;;;;;;11.02;6.72;;;;;;;-3.40;100.00;97092.03;6100227;19;20002;-72
2023/11/30 06:57:54;;;;;;;11.13;7.57;;;;;;;-3.36;100.00;97094.91;6099712;19;20005;-72
2023/11/30 06:59:54;;;;;;;13.40;7.13;;;;;;;-3.32;100.00;97087.72;6100776;19;20327;-72
2023/11/30 07:01:55;;;;;;;13.35;7.45;;;;;;;-3.33;100.00;97088.84;6100730;19;20478;-72
2023/11/30 07:03:56;;;;;;;11.90;6.88;;;;;;;-3.30;100.00;97080.91;6099740;19;20022;-72
2023/11/30 07:05:56;;;;;;;14.75;7.13;;;;;;;-3.26;100.00;97086.47;6096363;19;20010;-72
2023/11/30 07:07:56;;;;;;;13.30;7.05;;;;;;;-3.26;100.00;97086.47;6099105;19;20007;-72
2023/11/30 07:09:57;;;;;;;15.02;7.43;;;;;;;-3.23;100.00;97086.59;6100660;19;20044;-72
2023/11/30 07:11:57;;;;;;;14.98;7.35;;;;;;;-3.17;100.00;97082.59;6100532;19;20007;-72
2023/11/30 07:13:59;;;;;;;13.52;8.00;;;;;;;-3.14;100.00;97070.38;6100382;19;20026;-72
2023/11/30 07:16:00;;;;;;;16.98;7.95;;;;;;;-3.15;100.00;97074.16;6105389;19;20007;-72
2023/11/30 07:18:00;;;;;;;11.30;7.10;;;;;;;-3.20;100.00;97080.56;6110723;19;20006;-72
2023/11/30 07:20:00;;;;;;;10.55;6.95;;;;;;;-3.21;100.00;97070.84;6112564;19;20587;-72
2023/11/30 07:22:01;;;;;;;12.45;7.13;;;;;;;-3.20;100.00;97080.56;6112920;19;20045;-72
2023/11/30 07:24:01;;;;;;;18.17;7.32;;;;;;;-3.23;100.00;97072.28;6110837;19;20520;-72
2023/11/30 07:26:02;;;;;;;13.63;6.95;;;;;;;-3.22;100.00;97074.69;6111893;19;20318;-72
2023/11/30 07:28:03;;;;;;;12.88;7.85;;;;;;;-3.23;100.00;97075.78;6111688;19;20013;-72
2023/11/30 07:30:08;;;;;;;13.25;7.47;;;;;;;-3.19;100.00;97068.63;6111305;19;20002;-72
2023/11/30 07:32:08;;;;;;;15.13;7.65;;;;;;;-3.18;100.00;97075.63;6111214;19;20006;-72
2023/11/30 07:34:08;;;;;;;20.02;10.35;;;;;;;-3.12;100.00;97076.25;6110499;19;20451;-72
2023/11/30 07:36:10;;;;;;;20.13;9.35;;;;;;;-3.09;100.00;97077.50;6111788;19;20001;-72
2023/11/30 07:38:10;;;;;;;16.57;8.43;;;;;;;-3.11;100.00;97072.41;6110701;19;20020;-72
2023/11/30 07:40:11;;;;;;;14.98;7.20;;;;;;;-3.08;100.00;97066.34;6111586;19;20326;-72
2023/11/30 07:42:11;;;;;;;13.10;7.80;;;;;;;-3.05;100.00;97064.94;6111751;19;20307;-72
2023/11/30 07:44:12;;;;;;;14.90;7.72;;;;;;;-3.02;100.00;97072.38;6111102;19;20007;-72
2023/11/30 07:46:13;;;;;;;17.20;8.32;;;;;;;-2.95;100.00;97061.84;6110885;19;20007;-72
2023/11/30 07:48:13;;;;;;;12.73;7.93;;;;;;;-2.88;100.00;97073.78;6109626;19;20007;-72
2023/11/30 07:50:16;;;;;;;13.32;7.72;;;;;;;-2.85;100.00;97072.31;6111955;19;20125;-72
2023/11/30 07:52:16;;;;;;;12.93;6.97;;;;;;;-2.84;100.00;97074.69;6110977;19;20427;-72
2023/11/30 07:54:17;;;;;;;14.50;7.45;;;;;;;-2.85;100.00;97070.41;6110280;19;20062;-72
2023/11/30 07:56:20;;;;;;;13.63;7.45;;;;;;;-2.86;100.00;97076.94;6111753;19;20746;-72
2023/11/30 07:58:22;;;;;;;12.52;6.72;;;;;;;-2.90;100.00;97078.69;6110270;19;20010;-72
2023/11/30 08:00:24;;;;;;;11.95;6.93;;;;;;;-2.93;100.00;97075.84;6110665;19;20527;-73
2023/11/30 08:02:24;;;;;;;13.57;7.07;;;;;;;-2.90;100.00;97069.78;6110576;19;20034;-72
2023/11/30 08:04:24;;;;;;;12.85;7.40;;;;;;;-2.88;100.00;97064.84;6110039;19;20232;-72
2023/11/30 08:06:25;;;;;;;12.93;7.80;;;;;;;-2.88;100.00;97062.94;6109185;19;20113;-72
2023/11/30 08:08:25;;;;;;;18.48;8.52;;;;;;;-2.87;100.00;97066.44;6109670;19;20021;-72
2023/11/30 08:10:26;;;;;;;14.32;8.20;;;;;;;-2.84;100.00;97060.38;6111303;19;20016;-72
2023/11/30 08:12:26;;;;;;;15.10;8.30;;;;;;;-2.81;100.00;97051.63;6110840;19;20025;-72
2023/11/30 08:14:26;;;;;;;14.68;7.93;;;;;;;-2.75;100.00;97052.22;6110785;19;20442;-72
2023/11/30 08:16:27;;;;;;;13.73;8.18;;;;;;;-2.70;100.00;97060.16;6110169;19;20014;-72
2023/11/30 08:18:27;;;;;;;13.32;7.95;;;;;;;-2.68;100.00;97060.63;6110144;19;20082;-72
2023/11/30 08:20:27;;;;;;;15.52;8.70;;;;;;;-2.69;100.00;97054.41;6110537;19;20040;-72
2023/11/30 08:22:28;;;;;;;14.43;8.70;;;;;;;-2.69;100.00;97057.13;6110541;19;20040;-72
2023/11/30 08:24:29;;;;;;;19.98;9.18;;;;;;;-2.68;100.00;97058.69;6110423;19;20319;-72
2023/11/30 08:26:29;;;;;;;19.45;9.75;;;;;;;-2.69;100.00;97053.63;6104765;19;20017;-72
2023/11/30 08:28:30;;;;;;;14.77;9.07;;;;;;;-2.73;100.00;97050.78;6097227;19;20040;-72
2023/11/30 08:30:30;;;;;;;15.25;8.52;;;;;;;-2.74;100.00;97043.75;6104051;19;20020;-72
2023/11/30 08:32:30;;;;;;;15.68;7.45;;;;;;;-2.74;100.00;97049.16;6105155;19;20015;-72
2023/11/30 08:34:31;;;;;;;15.82;8.32;;;;;;;-2.73;100.00;97047.25;6103576;19;20018;-72
2023/11/30 08:36:31;;;;;;;14.77;7.53;;;;;;;-2.72;100.00;97046.94;6103573;19;20005;-72
2023/11/30 08:38:33;;;;;;;14.20;7.80;;;;;;;-2.70;100.00;97054.75;6103292;19;20010;-72
2023/11/30 08:40:33;;;;;;;12.95;7.25;;;;;;;-2.67;100.00;97054.06;6101569;19;20038;-72
2023/11/30 08:42:35;;;;;;;12.73;7.07;;;;;;;-2.63;100.00;97057.72;6104058;19;20986;-72
2023/11/30 08:44:35;;;;;;;14.00;8.10;;;;;;;-2.60;100.00;97057.06;6103370;19;20011;-72
2023/11/30 08:46:36;;;;;;;16.50;7.35;;;;;;;-2.62;100.00;97059.31;6103389;19;20006;-72
2023/11/30 08:48:36;;;;;;;13.85;8.13;;;;;;;-2.58;100.00;97055.63;6102913;19;19999;-72
2023/11/30 08:50:36;;;;;;;13.45;7.70;;;;;;;-2.47;100.00;97047.94;6104463;19;20035;-72
2023/11/30 08:52:37;;;;;;;11.27;6.50;;;;;;;-2.37;100.00;97052.97;6103830;19;20436;-72
2023/11/30 08:54:38;;;;;;;12.98;7.63;;;;;;;-2.34;100.00;97052.28;6103556;19;20338;-72
2023/11/30 08:56:38;;;;;;;13.77;6.65;;;;;;;-2.30;100.00;97052.44;6103255;19;20022;-72
2023/11/30 08:58:39;;;;;;;10.55;5.90;;;;;;;-2.26;100.00;97058.78;6102855;19;20298;-72
2023/11/30 09:00:40;;;;;;;15.40;7.28;;;;;;;-2.23;100.00;97057.31;6103470;19;20037;-72
2023/11/30 09:02:41;;;;;;;14.38;6.80;;;;;;;-2.23;100.00;97057.31;6103901;19;20167;-72
2023/11/30 09:04:42;;;;;;;12.82;7.07;;;;;;;-2.17;100.00;97061.44;6102571;19;20011;-72
2023/11/30 09:06:42;;;;;;;13.40;6.97;;;;;;;-2.15;100.00;97059.16;6101987;19;20027;-72
2023/11/30 09:08:42;;;;;;;15.32;8.27;;;;;;;-2.09;100.00;97063.28;6101878;19;20316;-72
2023/11/30 09:10:43;;;;;;;20.98;10.10;;;;;;;-2.05;100.00;97054.19;6103308;19;20035;-72
2023/11/30 09:12:43;;;;;;;18.50;9.18;;;;;;;-2.00;100.00;97058.59;6103744;19;20018;-72
2023/11/30 09:14:44;;;;;;;18.73;9.20;;;;;;;-1.99;100.00;97058.28;6102087;19;20943;-72